Time;durP1;ratioP1;P1;durP2;ratioP2;P2;SDS_P1;SDS_P2;PMS_P1;PMS_P2;Temp;Humidity;BMP_temperature;BMP_pressure;BME280_temperature;BME280_humidity;BME280_pressure;Samples;Min_cycle;Max_cycle;Signal;HPM_P1;HPM_P2
2023/03/13 00:01:54;;;;;;;9.98;3.50;;;;;;;3.31;100.00;96790.34;5081375;28;20400;-60
2023/03/13 00:04:21;;;;;;;12.52;3.97;;;;;;;3.43;100.00;96787.75;5073060;28;20031;-60
2023/03/13 00:06:48;;;;;;;6.70;3.17;;;;;;;3.49;100.00;96786.88;5077993;28;20048;-59
2023/03/13 00:09:16;;;;;;;9.02;3.25;;;;;;;3.58;100.00;96787.41;5086136;28;20057;-59
2023/03/13 00:11:44;;;;;;;10.20;3.33;;;;;;;3.51;100.00;96782.94;5081365;28;20051;-60
2023/03/13 00:14:11;;;;;;;9.40;2.75;;;;;;;3.69;100.00;96785.84;5076227;28;20165;-60
2023/03/13 00:16:38;;;;;;;12.60;3.17;;;;;;;3.61;100.00;96776.28;5066666;28;20047;-60
2023/03/13 00:19:06;;;;;;;11.00;3.15;;;;;;;3.55;100.00;96771.78;5080115;28;20049;-59
2023/03/13 00:21:33;;;;;;;10.02;2.92;;;;;;;3.64;100.00;96773.13;5080346;28;20498;-60
2023/03/13 00:24:00;;;;;;;8.05;2.58;;;;;;;3.60;100.00;96770.09;5087229;28;20093;-60
2023/03/13 00:26:28;;;;;;;8.52;3.35;;;;;;;3.61;100.00;96763.69;5072543;28;20070;-60
2023/03/13 00:28:55;;;;;;;16.67;3.00;;;;;;;3.61;100.00;96771.72;5076135;28;20047;-60
2023/03/13 00:31:32;;;;;;;7.75;2.03;;;;;;;3.67;100.00;96766.50;5085744;28;20129;-59
2023/03/13 00:34:01;;;;;;;7.82;2.50;;;;;;;3.69;100.00;96757.22;5078447;28;20097;-60
2023/03/13 00:36:34;;;;;;;10.05;2.40;;;;;;;3.75;100.00;96758.19;5076129;28;20111;-60
2023/03/13 00:39:01;;;;;;;8.77;2.45;;;;;;;3.80;100.00;96749.47;5072165;28;20052;-59
2023/03/13 00:41:30;;;;;;;9.00;2.50;;;;;;;3.85;100.00;96742.41;5077796;28;20040;-60
2023/03/13 00:43:57;;;;;;;7.10;2.28;;;;;;;3.92;100.00;96738.84;5074859;28;20044;-60
2023/03/13 00:46:27;;;;;;;8.63;2.83;;;;;;;3.97;100.00;96739.78;5083720;28;20081;-60
2023/03/13 00:48:54;;;;;;;10.90;2.95;;;;;;;4.06;100.00;96740.31;5080053;28;20035;-59
2023/03/13 00:51:25;;;;;;;9.48;2.45;;;;;;;4.09;100.00;96739.84;5077133;28;20047;-61
2023/03/13 00:53:54;;;;;;;7.18;1.88;;;;;;;4.19;100.00;96733.13;5078407;28;20055;-60
2023/03/13 00:56:21;;;;;;;11.30;2.83;;;;;;;4.29;100.00;96728.06;5078056;28;20051;-60
2023/03/13 00:58:49;;;;;;;11.40;2.38;;;;;;;4.34;100.00;96725.50;5079603;28;20109;-61
2023/03/13 01:01:24;;;;;;;6.63;1.92;;;;;;;4.49;100.00;96718.94;5078944;28;20047;-58
2023/03/13 01:03:55;;;;;;;8.35;2.10;;;;;;;4.64;100.00;96721.19;5075973;28;20052;-61
2023/03/13 01:06:24;;;;;;;7.70;1.95;;;;;;;4.72;100.00;96711.97;5073591;28;20561;-60
2023/03/13 01:08:51;;;;;;;10.45;1.92;;;;;;;4.87;100.00;96706.97;5075282;28;20040;-60
2023/03/13 01:11:24;;;;;;;8.20;1.92;;;;;;;4.97;100.00;96703.72;5065446;28;20051;-60
2023/03/13 01:13:59;;;;;;;8.98;1.60;;;;;;;5.21;100.00;96703.72;5074495;28;20040;-59
2023/03/13 01:16:28;;;;;;;9.68;2.40;;;;;;;5.54;100.00;96699.63;5066481;28;20028;-59
2023/03/13 01:18:58;;;;;;;14.63;2.38;;;;;;;5.72;100.00;96690.56;5068721;28;20415;-61
2023/03/13 01:21:24;;;;;;;10.25;1.80;;;;;;;5.90;100.00;96687.97;5067049;28;20037;-59
2023/03/13 01:23:53;;;;;;;8.73;1.88;;;;;;;6.05;100.00;96677.53;5070242;28;20040;-60
2023/03/13 01:26:20;;;;;;;7.25;2.05;;;;;;;6.34;100.00;96672.16;5068440;28;20739;-60
2023/03/13 01:28:47;;;;;;;8.93;1.83;;;;;;;6.49;100.00;96654.66;5063878;28;20901;-60
2023/03/13 01:31:23;;;;;;;7.38;1.83;;;;;;;6.55;99.70;96661.75;5069238;28;20048;-60
2023/03/13 01:33:54;;;;;;;7.53;1.60;;;;;;;6.62;98.97;96658.91;5073753;28;20719;-59
2023/03/13 01:36:21;;;;;;;7.05;1.90;;;;;;;6.75;97.82;96663.94;5073925;28;20116;-59
2023/03/13 01:38:50;;;;;;;8.75;2.05;;;;;;;6.70;98.09;96646.91;5072245;28;20213;-60
2023/03/13 01:41:18;;;;;;;5.90;1.45;;;;;;;6.62;98.13;96638.19;5068285;28;20055;-60
2023/03/13 01:43:46;;;;;;;8.25;1.75;;;;;;;6.63;98.57;96637.13;5082535;28;20594;-61
2023/03/13 01:46:17;;;;;;;6.72;1.70;;;;;;;6.59;97.93;96629.78;5074185;28;20044;-60
2023/03/13 01:49:14;;;;;;;7.00;1.65;;;;;;;6.52;98.87;96631.84;5075458;28;20182;-60
2023/03/13 01:52:07;;;;;;;9.27;1.92;;;;;;;6.48;99.00;96629.63;5072614;28;20068;-60
2023/03/13 01:54:55;;;;;;;8.45;1.77;;;;;;;6.49;99.88;96611.63;5072246;28;20139;-60
2023/03/13 01:57:40;;;;;;;6.65;1.33;;;;;;;6.55;98.97;96613.34;5073098;28;20059;-59
2023/03/13 02:00:11;;;;;;;4.70;1.50;;;;;;;6.74;97.68;96605.00;5074043;28;20040;-60
2023/03/13 02:02:45;;;;;;;7.18;1.73;;;;;;;6.87;96.96;96598.47;5084125;28;20068;-60
2023/03/13 02:05:14;;;;;;;8.82;1.65;;;;;;;6.89;96.50;96596.34;5070641;28;20132;-60
2023/03/13 02:07:46;;;;;;;5.47;1.27;;;;;;;6.96;96.17;96596.97;5076643;28;20068;-60
2023/03/13 02:10:16;;;;;;;6.60;1.20;;;;;;;7.14;95.22;96590.50;5078470;28;20477;-60
2023/03/13 02:12:43;;;;;;;4.93;0.90;;;;;;;7.31;93.88;96586.13;5073508;28;20047;-59
2023/03/13 02:15:18;;;;;;;7.10;1.33;;;;;;;7.38;93.60;96590.25;5077390;28;20060;-60
2023/03/13 02:17:47;;;;;;;4.72;1.48;;;;;;;7.51;92.77;96589.06;5092459;27;20090;-58
2023/03/13 02:20:15;;;;;;;7.47;1.33;;;;;;;7.55;92.27;96587.50;5076336;28;20123;-60
2023/03/13 02:23:02;;;;;;;8.98;1.77;;;;;;;7.59;92.29;96585.09;5076589;28;20593;-60
2023/03/13 02:25:35;;;;;;;6.68;1.52;;;;;;;7.61;92.19;96577.59;5072393;28;20101;-60
2023/03/13 02:28:12;;;;;;;8.88;1.40;;;;;;;7.65;91.72;96573.34;5070908;28;20052;-59
2023/03/13 02:30:42;;;;;;;6.20;1.73;;;;;;;7.66;91.60;96569.56;5074529;28;20048;-60
2023/03/13 02:33:11;;;;;;;4.75;1.27;;;;;;;7.63;92.22;96566.56;5061501;28;20048;-60
2023/03/13 02:35:38;;;;;;;6.15;1.35;;;;;;;7.58;92.58;96556.53;5074764;28;20040;-58
2023/03/13 02:38:12;;;;;;;5.78;1.30;;;;;;;7.60;92.45;96559.81;5075329;28;20560;-60
2023/03/13 02:40:43;;;;;;;4.88;1.10;;;;;;;7.64;92.67;96555.56;5074086;28;21574;-60
2023/03/13 02:43:19;;;;;;;7.07;1.83;;;;;;;7.78;92.21;96550.56;5050251;28;20058;-60
2023/03/13 02:46:04;;;;;;;5.18;1.00;;;;;;;7.89;91.58;96537.19;5065644;28;20036;-60
2023/03/13 02:48:41;;;;;;;3.90;1.10;;;;;;;7.97;91.78;96527.81;5061638;28;20045;-60
2023/03/13 02:51:35;;;;;;;2.65;0.98;;;;;;;8.05;91.64;96530.06;5056978;28;20507;-60
2023/03/13 02:54:07;;;;;;;4.68;0.93;;;;;;;8.06;92.02;96516.31;5052246;28;20039;-60
2023/03/13 02:56:36;;;;;;;4.25;1.02;;;;;;;8.07;91.86;96515.25;5080259;28;20040;-60
2023/03/13 02:59:04;;;;;;;6.13;1.25;;;;;;;8.01;92.28;96520.84;5070816;28;20040;-60
2023/03/13 03:01:31;;;;;;;5.28;1.10;;;;;;;7.98;92.79;96510.56;5075359;28;20032;-60
2023/03/13 03:03:58;;;;;;;4.00;1.23;;;;;;;7.99;93.04;96510.31;5064504;28;20069;-60
2023/03/13 03:06:25;;;;;;;4.53;1.30;;;;;;;7.98;94.28;96502.47;5051347;28;20665;-59
2023/03/13 03:08:53;;;;;;;2.78;0.93;;;;;;;7.97;94.66;96503.56;5069412;28;20089;-59
2023/03/13 03:11:19;;;;;;;3.15;1.00;;;;;;;7.94;94.91;96494.09;5068853;28;20040;-60
2023/03/13 03:13:51;;;;;;;3.88;0.98;;;;;;;8.03;94.60;96495.25;5056759;28;20033;-60
2023/03/13 03:16:18;;;;;;;5.05;1.50;;;;;;;8.05;95.61;96492.31;5075643;28;20094;-60
2023/03/13 03:18:44;;;;;;;7.00;1.48;;;;;;;8.25;96.78;96501.63;5070565;28;20125;-60
2023/03/13 03:21:11;;;;;;;3.58;1.02;;;;;;;8.54;95.74;96485.94;5071337;28;20040;-60
2023/03/13 03:23:38;;;;;;;1.77;0.73;;;;;;;8.80;94.95;96488.78;5063713;28;20032;-58
2023/03/13 03:26:06;;;;;;;3.28;0.85;;;;;;;8.87;95.41;96483.13;5069509;28;20661;-58
2023/03/13 03:28:33;;;;;;;1.85;0.52;;;;;;;8.93;94.88;96494.78;5063727;28;20044;-59
2023/03/13 03:31:05;;;;;;;2.23;0.60;;;;;;;9.04;95.09;96498.34;5067447;28;20044;-59
2023/03/13 03:33:34;;;;;;;1.67;0.73;;;;;;;9.04;95.39;96484.84;5072166;28;20934;-55
2023/03/13 03:36:07;;;;;;;2.10;0.60;;;;;;;9.02;95.69;96481.56;5059201;28;20692;-57
2023/03/13 03:38:38;;;;;;;4.63;1.30;;;;;;;9.04;95.76;96485.66;5068836;28;20032;-57
2023/03/13 03:41:06;;;;;;;;;;;;;;;9.09;95.84;96484.84;5070763;28;20038;-58
2023/03/13 03:43:33;;;;;;;3.17;0.95;;;;;;;9.06;96.63;96483.50;5069051;28;20520;-57
2023/03/13 03:46:02;;;;;;;4.18;0.88;;;;;;;9.08;96.55;96491.34;5058452;28;20036;-57
2023/03/13 03:48:29;;;;;;;2.85;0.60;;;;;;;9.18;95.95;96493.25;5047409;28;20127;-58
2023/03/13 03:50:56;;;;;;;3.22;0.98;;;;;;;9.16;96.37;96496.22;5066734;28;20062;-58
2023/03/13 03:53:24;;;;;;;2.20;0.50;;;;;;;9.23;96.48;96491.41;5067677;28;20044;-57
2023/03/13 03:55:51;;;;;;;3.30;1.08;;;;;;;9.25;96.77;96488.41;5065282;28;20036;-58
2023/03/13 03:58:18;;;;;;;1.88;0.80;;;;;;;9.19;97.09;96486.78;5071942;28;20036;-56
2023/03/13 04:00:59;;;;;;;3.92;0.80;;;;;;;9.20;97.91;96480.28;5067254;28;20051;-57
2023/03/13 04:03:26;;;;;;;3.63;0.70;;;;;;;9.28;97.98;96473.59;5075652;28;20525;-58
2023/03/13 04:05:52;;;;;;;2.85;0.88;;;;;;;9.37;97.89;96472.78;5057594;28;20547;-57
2023/03/13 04:08:22;;;;;;;2.33;0.80;;;;;;;9.40;97.94;96467.94;5067145;28;20036;-56
2023/03/13 04:10:49;;;;;;;4.95;0.77;;;;;;;9.36;98.29;96473.84;5063638;28;20052;-57
2023/03/13 04:13:18;;;;;;;4.18;0.63;;;;;;;9.36;98.75;96470.34;5086247;27;20070;-57
2023/03/13 04:15:47;;;;;;;3.28;0.60;;;;;;;9.31;99.17;96471.16;5064535;28;20067;-57
2023/03/13 04:18:15;;;;;;;3.33;0.90;;;;;;;9.30;99.52;96458.72;5065956;28;20032;-56
2023/03/13 04:20:42;;;;;;;3.80;1.00;;;;;;;9.26;100.00;96459.50;5064414;28;20036;-56
2023/03/13 04:23:09;;;;;;;2.85;0.95;;;;;;;9.24;100.00;96460.59;5048363;28;20037;-57
2023/03/13 04:25:37;;;;;;;2.42;0.63;;;;;;;9.23;100.00;96458.97;5068577;28;20048;-57
2023/03/13 04:28:07;;;;;;;2.90;0.65;;;;;;;9.24;100.00;96448.97;5056522;28;20045;-55
2023/03/13 04:30:39;;;;;;;1.40;0.57;;;;;;;9.32;100.00;96455.75;5069629;28;20070;-56
2023/03/13 04:33:36;;;;;;;2.42;0.73;;;;;;;9.36;100.00;96443.31;5066786;28;20044;-56
2023/03/13 04:36:24;;;;;;;2.40;0.65;;;;;;;9.30;100.00;96447.09;5069861;28;20036;-57
2023/03/13 04:39:16;;;;;;;3.03;0.60;;;;;;;9.28;100.00;96447.38;5060142;28;20052;-60
2023/03/13 04:42:03;;;;;;;1.75;0.60;;;;;;;9.28;100.00;96441.97;5049622;28;20044;-58
2023/03/13 04:44:53;;;;;;;2.25;0.80;;;;;;;9.29;100.00;96448.19;5051255;28;20043;-56
2023/03/13 04:47:57;;;;;;;3.08;0.60;;;;;;;9.30;100.00;96430.91;5058682;28;22042;-57
2023/03/13 04:50:48;;;;;;;1.65;0.70;;;;;;;9.30;100.00;96433.59;5069801;28;20048;-58
2023/03/13 04:53:44;;;;;;;2.90;0.80;;;;;;;9.28;100.00;96433.84;5068899;28;20127;-57
2023/03/13 04:56:37;;;;;;;3.95;0.90;;;;;;;9.32;100.00;96426.84;5071705;28;20039;-59
2023/03/13 04:59:28;;;;;;;0.90;0.40;;;;;;;9.35;100.00;96436.31;5069410;28;20046;-59
2023/03/13 05:02:15;;;;;;;2.95;0.70;;;;;;;9.37;100.00;96434.16;5067700;28;20056;-60
2023/03/13 05:05:01;;;;;;;4.15;0.70;;;;;;;9.43;100.00;96438.47;5067958;28;20035;-58
2023/03/13 05:07:46;;;;;;;1.35;0.50;;;;;;;9.49;100.00;96434.72;5070263;28;20078;-58
2023/03/13 05:10:28;;;;;;;2.63;0.60;;;;;;;9.54;100.00;96430.41;5062627;28;20050;-58
2023/03/13 05:13:06;;;;;;;1.08;0.40;;;;;;;9.54;100.00;96422.31;5074469;28;20048;-57
2023/03/13 05:15:56;;;;;;;2.17;0.60;;;;;;;9.50;100.00;96436.34;5056703;28;20106;-57
2023/03/13 05:18:49;;;;;;;1.65;0.80;;;;;;;9.61;100.00;96439.03;5061943;28;20097;-57
2023/03/13 05:21:39;;;;;;;0.47;0.30;;;;;;;9.57;100.00;96422.56;5063920;28;20459;-58
2023/03/13 05:24:24;;;;;;;4.82;0.88;;;;;;;9.55;100.00;96430.13;5074446;28;20050;-60
2023/03/13 05:27:09;;;;;;;3.60;1.58;;;;;;;9.62;100.00;96421.78;5076222;28;20439;-57
2023/03/13 05:29:48;;;;;;;0.95;0.43;;;;;;;9.65;100.00;96421.22;5075403;28;20068;-57
2023/03/13 05:32:32;;;;;;;1.38;0.55;;;;;;;9.67;100.00;96408.25;5078354;28;20048;-57
2023/03/13 05:35:21;;;;;;;1.83;0.47;;;;;;;9.59;100.00;96406.09;5076798;28;20105;-57
2023/03/13 05:38:04;;;;;;;0.65;0.40;;;;;;;9.66;100.00;96411.22;5075277;28;20668;-58
2023/03/13 05:40:49;;;;;;;0.85;0.40;;;;;;;9.69;100.00;96408.78;5079030;28;20059;-58
2023/03/13 05:43:38;;;;;;;2.85;0.70;;;;;;;9.67;100.00;96408.25;5077678;28;20213;-56
2023/03/13 05:46:13;;;;;;;0.60;0.35;;;;;;;9.72;100.00;96407.41;5081914;28;20462;-60
2023/03/13 05:49:15;;;;;;;1.35;0.50;;;;;;;9.70;100.00;96406.91;5032686;28;20051;-57
2023/03/13 05:52:02;;;;;;;1.27;0.30;;;;;;;9.69;100.00;96400.66;5058330;28;20056;-59
2023/03/13 05:54:55;;;;;;;0.63;0.30;;;;;;;9.66;100.00;96413.91;5070285;28;20051;-58
2023/03/13 05:57:47;;;;;;;1.90;0.43;;;;;;;9.70;100.00;96413.09;5072863;28;20169;-58
2023/03/13 06:00:16;;;;;;;1.25;0.30;;;;;;;9.70;100.00;96413.09;5085808;28;20059;-57
2023/03/13 06:03:05;;;;;;;1.13;0.50;;;;;;;9.72;100.00;96410.13;5082705;28;20052;-56
2023/03/13 06:05:36;;;;;;;1.23;0.40;;;;;;;9.77;100.00;96418.25;5083115;28;20044;-57
2023/03/13 06:08:07;;;;;;;1.58;0.40;;;;;;;9.82;100.00;96409.31;5071706;28;20052;-58
2023/03/13 06:10:34;;;;;;;1.15;0.45;;;;;;;9.85;100.00;96408.78;5081036;28;20093;-58
2023/03/13 06:13:01;;;;;;;1.83;0.32;;;;;;;9.89;100.00;96405.25;5075074;28;20051;-58
2023/03/13 06:15:52;;;;;;;0.65;0.40;;;;;;;9.82;100.00;96406.63;5076624;28;20133;-58
2023/03/13 06:18:36;;;;;;;1.40;0.68;;;;;;;9.89;100.00;96399.06;5066681;28;20879;-57
2023/03/13 06:21:03;;;;;;;1.15;0.32;;;;;;;9.91;100.00;96393.38;5067073;28;20060;-58
2023/03/13 06:23:30;;;;;;;1.08;0.47;;;;;;;9.97;100.00;96394.97;5070301;28;20043;-57
2023/03/13 06:25:56;;;;;;;0.65;0.25;;;;;;;10.07;100.00;96402.28;5070000;28;20068;-59
2023/03/13 06:28:23;;;;;;;2.72;0.50;;;;;;;10.09;100.00;96391.97;5073756;28;20499;-59
2023/03/13 06:30:50;;;;;;;0.22;0.20;;;;;;;10.12;100.00;96386.03;5074103;28;20074;-59
2023/03/13 06:33:16;;;;;;;0.73;0.38;;;;;;;10.09;100.00;96406.31;5074825;28;21262;-57
2023/03/13 06:35:43;;;;;;;2.33;0.50;;;;;;;10.13;100.00;96403.88;5058954;28;20040;-59
2023/03/13 06:38:23;;;;;;;1.38;0.40;;;;;;;10.19;100.00;96399.28;5063711;28;20861;-59
2023/03/13 06:40:50;;;;;;;0.52;0.30;;;;;;;10.17;100.00;96398.75;5080057;28;20044;-59
2023/03/13 06:43:18;;;;;;;0.73;0.30;;;;;;;10.23;100.00;96403.88;5072126;28;20631;-59
2023/03/13 06:45:45;;;;;;;0.80;0.22;;;;;;;10.31;100.00;96415.25;5058699;28;20040;-58
2023/03/13 06:48:12;;;;;;;1.10;0.30;;;;;;;10.32;100.00;96420.34;5077953;28;20048;-59
2023/03/13 06:50:39;;;;;;;1.05;0.40;;;;;;;10.36;100.00;96426.84;5077149;28;20040;-59
2023/03/13 06:53:06;;;;;;;0.85;0.40;;;;;;;10.39;100.00;96426.28;5070702;28;20044;-59
2023/03/13 06:55:32;;;;;;;1.20;0.60;;;;;;;10.40;100.00;96422.50;5073687;28;20157;-57
2023/03/13 06:57:59;;;;;;;0.90;0.45;;;;;;;10.38;100.00;96427.38;5081530;28;20048;-59
2023/03/13 07:00:25;;;;;;;0.98;0.50;;;;;;;10.37;100.00;96427.66;5087589;28;20046;-58
2023/03/13 07:02:52;;;;;;;1.20;0.57;;;;;;;10.37;100.00;96430.38;5080937;28;20051;-59
2023/03/13 07:05:19;;;;;;;1.90;0.50;;;;;;;10.38;100.00;96429.28;5086786;28;20047;-60
2023/03/13 07:07:46;;;;;;;0.70;0.40;;;;;;;10.40;100.00;96430.63;5082016;28;20089;-59
2023/03/13 07:10:13;;;;;;;1.38;0.40;;;;;;;10.38;100.00;96434.69;5087915;28;20580;-59
2023/03/13 07:12:39;;;;;;;1.50;0.40;;;;;;;10.35;100.00;96430.63;5073246;28;20064;-59
2023/03/13 07:15:07;;;;;;;0.65;0.40;;;;;;;10.28;100.00;96428.22;5078864;28;20498;-59
2023/03/13 07:17:34;;;;;;;0.88;0.40;;;;;;;10.32;100.00;96425.75;5076325;28;20067;-59
2023/03/13 07:20:01;;;;;;;0.57;0.30;;;;;;;10.33;100.00;96413.88;5085358;28;20087;-58
2023/03/13 07:22:28;;;;;;;1.00;0.40;;;;;;;10.33;100.00;96419.28;5080613;28;20050;-57
2023/03/13 07:24:54;;;;;;;0.85;0.30;;;;;;;10.38;100.00;96419.28;5079419;28;20492;-59
2023/03/13 07:27:21;;;;;;;1.00;0.60;;;;;;;10.41;100.00;96416.03;5079580;28;20040;-59
2023/03/13 07:29:49;;;;;;;1.30;0.60;;;;;;;10.47;100.00;96414.13;5068539;28;20048;-59
2023/03/13 07:32:15;;;;;;;0.95;0.50;;;;;;;10.52;100.00;96418.72;5074788;28;20500;-59
2023/03/13 07:34:43;;;;;;;1.10;0.43;;;;;;;10.59;100.00;96411.13;5075399;28;20119;-58
2023/03/13 07:37:11;;;;;;;1.35;0.60;;;;;;;10.65;100.00;96411.94;5079095;28;20134;-60
2023/03/13 07:39:37;;;;;;;0.57;0.30;;;;;;;10.73;100.00;96413.25;5084329;28;20061;-60
2023/03/13 07:42:04;;;;;;;1.38;0.40;;;;;;;10.86;99.22;96414.53;5073303;28;20110;-59
2023/03/13 07:44:32;;;;;;;1.98;0.70;;;;;;;10.83;99.30;96404.28;5081563;28;20024;-59
2023/03/13 07:47:00;;;;;;;1.23;0.40;;;;;;;10.86;99.42;96404.53;5086543;28;20036;-59
2023/03/13 07:49:26;;;;;;;0.65;0.40;;;;;;;10.92;98.82;96395.28;5084915;28;20044;-59
2023/03/13 07:51:53;;;;;;;1.05;0.43;;;;;;;11.01;98.51;96389.28;5079935;28;20559;-59
2023/03/13 07:54:20;;;;;;;0.98;0.40;;;;;;;11.00;98.71;96383.06;5073612;28;20049;-60
2023/03/13 07:56:47;;;;;;;1.10;0.40;;;;;;;11.02;98.64;96380.88;5078048;28;20491;-58
2023/03/13 07:59:14;;;;;;;0.45;0.28;;;;;;;11.13;97.85;96384.31;5084316;28;20112;-60
2023/03/13 08:01:40;;;;;;;1.50;0.57;;;;;;;11.17;97.68;96368.34;5075812;28;20108;-59
2023/03/13 08:04:11;;;;;;;1.30;0.30;;;;;;;11.21;97.32;96358.56;5077460;28;20082;-60
2023/03/13 08:06:39;;;;;;;0.52;0.40;;;;;;;11.27;96.32;96359.31;5073072;28;20143;-60
2023/03/13 08:09:07;;;;;;;0.73;0.45;;;;;;;11.35;96.47;96347.88;5085897;28;20040;-60
2023/03/13 08:11:34;;;;;;;0.75;0.50;;;;;;;11.39;95.94;96356.28;5077560;28;20596;-57
2023/03/13 08:14:00;;;;;;;3.13;0.77;;;;;;;11.42;96.23;96361.09;5079794;28;20048;-59
2023/03/13 08:16:29;;;;;;;1.40;0.60;;;;;;;11.49;95.08;96361.59;5079806;28;20046;-59
2023/03/13 08:18:57;;;;;;;0.55;0.40;;;;;;;11.58;94.50;96357.19;5076646;28;20052;-59
2023/03/13 08:21:27;;;;;;;1.10;0.45;;;;;;;11.66;93.11;96357.69;5084896;27;20075;-60
2023/03/13 08:24:00;;;;;;;0.85;0.60;;;;;;;11.76;92.88;96365.72;5077897;28;20051;-60
2023/03/13 08:26:28;;;;;;;1.33;0.60;;;;;;;11.73;93.12;96368.19;5078977;28;20058;-60
2023/03/13 08:28:58;;;;;;;2.35;0.70;;;;;;;11.79;92.48;96369.78;5084776;28;20048;-59
2023/03/13 08:31:28;;;;;;;1.02;0.50;;;;;;;11.86;92.36;96364.03;5077454;28;20039;-59
2023/03/13 08:33:55;;;;;;;0.75;0.40;;;;;;;11.93;90.94;96369.91;5082426;28;20073;-60
2023/03/13 08:36:31;;;;;;;1.35;0.40;;;;;;;12.03;90.81;96377.97;5077182;28;20456;-58
2023/03/13 08:39:01;;;;;;;1.65;0.63;;;;;;;11.97;92.00;96371.78;5083501;28;20046;-60
2023/03/13 08:41:31;;;;;;;2.63;0.68;;;;;;;12.03;90.13;96375.25;5081139;28;20077;-59
2023/03/13 08:43:58;;;;;;;1.00;0.50;;;;;;;12.01;90.48;96376.66;5079440;28;20565;-58
2023/03/13 08:46:25;;;;;;;1.52;0.40;;;;;;;12.12;90.06;96377.38;5083941;28;20059;-59
2023/03/13 08:48:53;;;;;;;3.08;0.73;;;;;;;12.17;90.06;96375.41;5087039;28;20037;-59
2023/03/13 08:51:23;;;;;;;1.13;0.50;;;;;;;12.16;89.08;96381.16;5081719;28;20147;-60
2023/03/13 08:53:50;;;;;;;1.27;0.60;;;;;;;12.21;89.10;96376.44;5095460;28;20375;-60
2023/03/13 08:56:20;;;;;;;2.35;0.73;;;;;;;12.39;88.96;96376.00;5093870;27;20058;-59
2023/03/13 08:58:54;;;;;;;1.67;0.60;;;;;;;12.39;87.95;96368.69;5085085;28;20055;-59
2023/03/13 09:01:23;;;;;;;2.25;0.65;;;;;;;12.37;88.12;96365.44;5091020;28;20101;-59
2023/03/13 09:03:50;;;;;;;1.73;0.70;;;;;;;12.43;87.61;96366.19;5089366;28;20514;-59
2023/03/13 09:06:17;;;;;;;1.75;0.95;;;;;;;12.55;86.46;96366.59;5088832;28;20577;-58
2023/03/13 09:08:44;;;;;;;1.80;0.80;;;;;;;12.66;84.20;96356.44;5093886;27;20032;-57
2023/03/13 09:11:13;;;;;;;1.75;0.88;;;;;;;12.85;83.17;96347.50;5093562;28;20045;-59
2023/03/13 09:13:42;;;;;;;2.17;1.15;;;;;;;12.95;82.79;96358.25;5086842;27;20043;-59
2023/03/13 09:16:11;;;;;;;2.05;0.70;;;;;;;13.09;80.33;96331.13;5088270;28;20094;-59
2023/03/13 09:18:39;;;;;;;2.88;1.10;;;;;;;13.24;79.39;96318.44;5091342;27;20118;-58
2023/03/13 09:21:08;;;;;;;3.38;0.95;;;;;;;13.39;79.58;96344.56;5091560;28;20123;-58
2023/03/13 09:23:35;;;;;;;3.45;1.55;;;;;;;13.45;78.84;96354.25;5080793;28;20043;-56
2023/03/13 09:26:02;;;;;;;2.45;0.80;;;;;;;13.43;77.86;96342.88;5083085;28;20097;-58
2023/03/13 09:28:29;;;;;;;2.80;1.00;;;;;;;13.30;78.00;96357.22;5089473;28;20456;-57
2023/03/13 09:31:05;;;;;;;2.13;1.20;;;;;;;13.13;77.83;96348.47;5085151;28;20040;-56
2023/03/13 09:33:31;;;;;;;2.10;0.90;;;;;;;13.18;77.73;96357.63;5082305;28;20761;-59
2023/03/13 09:35:58;;;;;;;2.20;0.93;;;;;;;13.01;79.52;96353.50;5081393;28;20049;-58
2023/03/13 09:38:24;;;;;;;2.10;1.00;;;;;;;13.13;78.96;96351.16;5083819;28;20113;-59
2023/03/13 09:40:53;;;;;;;2.47;1.13;;;;;;;13.26;79.65;96349.63;5073169;28;20503;-58
2023/03/13 09:43:44;;;;;;;4.22;1.20;;;;;;;13.57;78.72;96353.03;5080873;28;20062;-58
2023/03/13 09:46:21;;;;;;;1.70;0.63;;;;;;;13.71;77.49;96350.34;5082045;28;20068;-59
2023/03/13 09:48:53;;;;;;;3.72;1.30;;;;;;;13.74;78.71;96338.84;5086606;28;20093;-58
2023/03/13 09:51:26;;;;;;;4.35;0.98;;;;;;;13.55;77.83;96337.00;5087910;28;20737;-57
2023/03/13 09:54:08;;;;;;;2.85;0.98;;;;;;;13.45;79.02;96343.38;5087606;28;20397;-58
2023/03/13 09:56:46;;;;;;;3.20;1.30;;;;;;;13.43;79.04;96332.00;5082760;28;20123;-58
2023/03/13 09:59:23;;;;;;;2.65;0.70;;;;;;;13.33;79.10;96337.56;5098006;28;20036;-58
2023/03/13 10:01:53;;;;;;;3.05;1.02;;;;;;;13.39;80.58;96337.19;5072888;28;20119;-58
2023/03/13 10:04:31;;;;;;;2.17;0.80;;;;;;;13.60;78.70;96336.91;5093263;28;20135;-59
2023/03/13 10:06:58;;;;;;;3.00;0.85;;;;;;;13.53;79.57;96328.34;5078120;28;20042;-58
2023/03/13 10:09:32;;;;;;;3.58;1.10;;;;;;;13.62;78.84;96325.72;5081604;28;20044;-58
2023/03/13 10:12:20;;;;;;;4.68;1.50;;;;;;;13.79;79.76;96323.25;5075012;28;20052;-57
2023/03/13 10:14:52;;;;;;;2.05;0.70;;;;;;;13.99;79.12;96328.63;5085710;28;20587;-59
2023/03/13 10:17:36;;;;;;;2.22;0.80;;;;;;;14.12;78.05;96319.69;5079055;28;20036;-58
2023/03/13 10:20:22;;;;;;;2.58;1.02;;;;;;;14.26;77.49;96329.78;5077810;28;20043;-57
2023/03/13 10:23:09;;;;;;;3.08;1.20;;;;;;;14.20;76.72;96334.53;5080381;28;20701;-58
2023/03/13 10:25:37;;;;;;;2.97;0.80;;;;;;;14.29;77.17;96323.72;5083738;28;20036;-59
2023/03/13 10:28:09;;;;;;;4.50;0.88;;;;;;;14.36;77.40;96332.31;5080326;28;20664;-57
2023/03/13 10:30:42;;;;;;;3.13;1.10;;;;;;;14.50;75.56;96326.88;5072473;28;20043;-57
2023/03/13 10:33:11;;;;;;;1.77;0.80;;;;;;;14.69;76.74;96317.75;5087868;28;20183;-58
2023/03/13 10:35:40;;;;;;;1.88;0.85;;;;;;;14.87;75.54;96309.78;5083045;28;20048;-59
2023/03/13 10:38:17;;;;;;;3.80;0.95;;;;;;;15.02;74.94;96316.81;5079255;28;20036;-58
2023/03/13 10:40:56;;;;;;;3.08;1.00;;;;;;;14.72;74.02;96319.88;5074183;28;20070;-58
2023/03/13 10:43:25;;;;;;;3.47;1.13;;;;;;;14.63;74.04;96327.16;5080792;28;20032;-59
2023/03/13 10:45:52;;;;;;;2.75;1.23;;;;;;;14.76;73.68;96309.16;5077536;28;20135;-57
2023/03/13 10:48:22;;;;;;;3.58;1.92;;;;;;;14.65;72.82;96314.84;5078627;28;20050;-59
2023/03/13 10:50:52;;;;;;;4.45;1.20;;;;;;;14.68;73.07;96297.88;5082096;28;20108;-60
2023/03/13 10:53:27;;;;;;;3.28;1.10;;;;;;;14.79;73.35;96297.69;5076519;28;20047;-60
2023/03/13 10:55:59;;;;;;;2.75;1.23;;;;;;;14.97;71.72;96289.69;5075648;28;20040;-60
2023/03/13 10:58:34;;;;;;;5.80;1.30;;;;;;;15.25;70.76;96300.50;5075992;28;20031;-60
2023/03/13 11:01:30;;;;;;;3.05;1.08;;;;;;;15.54;70.37;96312.88;5085233;28;20047;-61
2023/03/13 11:03:59;;;;;;;4.57;1.00;;;;;;;15.33;70.02;96302.47;5082618;28;20163;-60
2023/03/13 11:06:31;;;;;;;3.15;1.42;;;;;;;15.18;70.41;96299.00;5084678;28;20134;-60
2023/03/13 11:09:03;;;;;;;1.95;0.82;;;;;;;15.56;70.58;96289.63;5084157;28;20055;-60
2023/03/13 11:11:41;;;;;;;2.97;1.30;;;;;;;16.06;68.81;96287.84;5077926;28;20039;-60
2023/03/13 11:14:13;;;;;;;2.17;0.70;;;;;;;16.27;67.95;96281.00;5085985;28;20434;-60
2023/03/13 11:16:53;;;;;;;3.47;1.05;;;;;;;16.32;68.59;96267.22;5079121;28;20555;-60
2023/03/13 11:19:44;;;;;;;4.22;1.08;;;;;;;15.93;67.22;96275.06;5088551;28;20101;-59
2023/03/13 11:22:13;;;;;;;2.67;1.20;;;;;;;15.84;67.27;96267.66;5078449;28;20075;-60
2023/03/13 11:24:53;;;;;;;2.70;0.80;;;;;;;15.86;67.14;96259.16;5075963;28;20051;-61
2023/03/13 11:27:41;;;;;;;2.10;0.90;;;;;;;16.03;67.77;96242.06;5083575;28;20039;-60
2023/03/13 11:30:40;;;;;;;3.42;0.80;;;;;;;16.10;66.18;96234.22;5085546;28;20036;-60
2023/03/13 11:33:36;;;;;;;1.88;0.80;;;;;;;15.83;66.37;96237.94;5083653;28;20044;-60
2023/03/13 11:36:17;;;;;;;2.45;1.27;;;;;;;15.96;66.85;96225.34;5082755;28;20055;-60
2023/03/13 11:39:25;;;;;;;2.30;1.10;;;;;;;16.17;66.34;96213.84;5078979;28;20119;-60
2023/03/13 11:42:23;;;;;;;1.92;0.70;;;;;;;16.28;65.68;96215.16;5054790;28;20056;-60
2023/03/13 11:45:11;;;;;;;2.15;0.80;;;;;;;16.34;66.30;96211.16;5077291;28;20679;-60
2023/03/13 11:47:56;;;;;;;2.33;0.73;;;;;;;16.24;65.25;96192.31;5080397;28;20569;-60
2023/03/13 11:50:31;;;;;;;1.77;0.90;;;;;;;16.27;66.76;96180.78;5079451;28;20066;-60
2023/03/13 11:53:25;;;;;;;2.20;0.93;;;;;;;16.37;65.73;96164.06;5080188;28;20131;-59
2023/03/13 11:56:07;;;;;;;3.58;1.52;;;;;;;16.52;66.05;96170.22;5076826;28;20045;-60
2023/03/13 11:58:52;;;;;;;2.03;1.10;;;;;;;16.36;65.15;96173.41;5080325;28;20060;-60
2023/03/13 12:01:24;;;;;;;2.92;1.05;;;;;;;16.52;64.43;96159.28;5079762;28;20043;-59
2023/03/13 12:04:00;;;;;;;4.10;0.95;;;;;;;16.54;64.28;96150.75;5082366;28;20131;-60